sensor_id;sensor_type;location;lat;lon;timestamp;temperature;humidity
33837;DHT22;20140;49.356;8.812;2023-03-14T00:00:07;9.20;99.90
33837;DHT22;20140;49.356;8.812;2023-03-14T00:02:34;9.20;99.90
33837;DHT22;20140;49.356;8.812;2023-03-14T00:05:00;9.10;99.90
33837;DHT22;20140;49.356;8.812;2023-03-14T00:07:27;9.10;99.90
33837;DHT22;20140;49.356;8.812;2023-03-14T00:09:57;9.20;99.90
33837;DHT22;20140;49.356;8.812;2023-03-14T00:12:22;9.20;99.90
33837;DHT22;20140;49.356;8.812;2023-03-14T00:14:48;9.40;99.90
33837;DHT22;20140;49.356;8.812;2023-03-14T00:17:13;9.50;99.90
33837;DHT22;20140;49.356;8.812;2023-03-14T00:19:39;9.50;99.90
33837;DHT22;20140;49.356;8.812;2023-03-14T00:22:04;9.60;99.90
33837;DHT22;20140;49.356;8.812;2023-03-14T00:24:30;9.70;99.90
33837;DHT22;20140;49.356;8.812;2023-03-14T00:26:55;9.80;99.90
33837;DHT22;20140;49.356;8.812;2023-03-14T00:29:21;9.70;99.90
33837;DHT22;20140;49.356;8.812;2023-03-14T00:31:46;9.90;99.90
33837;DHT22;20140;49.356;8.812;2023-03-14T00:34:12;10.00;99.90
33837;DHT22;20140;49.356;8.812;2023-03-14T00:36:37;10.00;99.90
33837;DHT22;20140;49.356;8.812;2023-03-14T00:39:03;10.00;99.90
33837;DHT22;20140;49.356;8.812;2023-03-14T00:41:28;10.10;99.90
33837;DHT22;20140;49.356;8.812;2023-03-14T00:43:54;10.20;99.90
33837;DHT22;20140;49.356;8.812;2023-03-14T00:46:19;10.30;99.90
33837;DHT22;20140;49.356;8.812;2023-03-14T00:48:45;10.50;99.90
33837;DHT22;20140;49.356;8.812;2023-03-14T00:51:11;10.60;99.90
33837;DHT22;20140;49.356;8.812;2023-03-14T00:53:39;10.50;99.90
33837;DHT22;20140;49.356;8.812;2023-03-14T00:56:06;10.60;99.90
33837;DHT22;20140;49.356;8.812;2023-03-14T00:58:32;10.60;99.90
33837;DHT22;20140;49.356;8.812;2023-03-14T01:00:58;10.70;99.90
33837;DHT22;20140;49.356;8.812;2023-03-14T01:03:24;10.70;99.90
33837;DHT22;20140;49.356;8.812;2023-03-14T01:05:50;10.80;99.90
33837;DHT22;20140;49.356;8.812;2023-03-14T01:08:16;10.80;99.90
33837;DHT22;20140;49.356;8.812;2023-03-14T01:10:42;10.80;99.90
33837;DHT22;20140;49.356;8.812;2023-03-14T01:13:08;10.70;99.90
33837;DHT22;20140;49.356;8.812;2023-03-14T01:15:35;10.70;99.90
33837;DHT22;20140;49.356;8.812;2023-03-14T01:18:00;10.80;99.90
33837;DHT22;20140;49.356;8.812;2023-03-14T01:20:26;10.80;99.90
33837;DHT22;20140;49.356;8.812;2023-03-14T01:22:51;10.90;99.90
33837;DHT22;20140;49.356;8.812;2023-03-14T01:25:17;10.90;99.90
33837;DHT22;20140;49.356;8.812;2023-03-14T01:27:44;10.90;99.90
33837;DHT22;20140;49.356;8.812;2023-03-14T01:30:11;10.90;99.90
33837;DHT22;20140;49.356;8.812;2023-03-14T01:32:37;11.10;99.90
33837;DHT22;20140;49.356;8.812;2023-03-14T01:35:03;11.20;99.90
33837;DHT22;20140;49.356;8.812;2023-03-14T01:37:28;11.20;99.90
33837;DHT22;20140;49.356;8.812;2023-03-14T01:39:54;11.10;99.90
33837;DHT22;20140;49.356;8.812;2023-03-14T01:42:19;11.10;99.90
33837;DHT22;20140;49.356;8.812;2023-03-14T01:44:54;10.90;99.90
33837;DHT22;20140;49.356;8.812;2023-03-14T01:47:20;10.90;99.90
33837;DHT22;20140;49.356;8.812;2023-03-14T01:52:28;10.90;99.90
33837;DHT22;20140;49.356;8.812;2023-03-14T01:55:04;11.00;99.90
33837;DHT22;20140;49.356;8.812;2023-03-14T01:57:35;11.20;99.90
33837;DHT22;20140;49.356;8.812;2023-03-14T02:00:22;11.10;99.90
33837;DHT22;20140;49.356;8.812;2023-03-14T02:02:55;11.20;99.90
33837;DHT22;20140;49.356;8.812;2023-03-14T02:05:26;11.20;99.90
33837;DHT22;20140;49.356;8.812;2023-03-14T02:07:55;11.30;99.90
33837;DHT22;20140;49.356;8.812;2023-03-14T02:10:28;11.30;99.90
33837;DHT22;20140;49.356;8.812;2023-03-14T02:12:56;11.20;99.90
33837;DHT22;20140;49.356;8.812;2023-03-14T02:15:22;11.30;99.90
33837;DHT22;20140;49.356;8.812;2023-03-14T02:17:48;11.20;99.90
33837;DHT22;20140;49.356;8.812;2023-03-14T02:23:04;11.20;99.90
33837;DHT22;20140;49.356;8.812;2023-03-14T02:25:36;11.10;99.90
33837;DHT22;20140;49.356;8.812;2023-03-14T02:28:04;11.20;99.90
33837;DHT22;20140;49.356;8.812;2023-03-14T02:30:30;11.20;99.90
33837;DHT22;20140;49.356;8.812;2023-03-14T02:33:17;11.20;99.90
33837;DHT22;20140;49.356;8.812;2023-03-14T02:35:48;11.10;99.90
33837;DHT22;20140;49.356;8.812;2023-03-14T02:40:47;11.10;99.90
33837;DHT22;20140;49.356;8.812;2023-03-14T02:43:13;11.10;99.90
33837;DHT22;20140;49.356;8.812;2023-03-14T02:45:40;11.10;99.90
33837;DHT22;20140;49.356;8.812;2023-03-14T02:48:18;11.10;99.90
33837;DHT22;20140;49.356;8.812;2023-03-14T02:50:46;11.20;99.90
33837;DHT22;20140;49.356;8.812;2023-03-14T02:53:16;11.10;99.90
33837;DHT22;20140;49.356;8.812;2023-03-14T02:55:49;11.10;99.90
33837;DHT22;20140;49.356;8.812;2023-03-14T02:58:15;11.10;99.90
33837;DHT22;20140;49.356;8.812;2023-03-14T03:00:41;11.00;99.90
33837;DHT22;20140;49.356;8.812;2023-03-14T03:03:06;11.00;99.90
33837;DHT22;20140;49.356;8.812;2023-03-14T03:05:32;10.90;99.90
33837;DHT22;20140;49.356;8.812;2023-03-14T03:07:58;10.90;99.90
33837;DHT22;20140;49.356;8.812;2023-03-14T03:10:24;10.90;99.90
33837;DHT22;20140;49.356;8.812;2023-03-14T03:12:50;10.80;99.90
33837;DHT22;20140;49.356;8.812;2023-03-14T03:15:16;10.70;99.90
33837;DHT22;20140;49.356;8.812;2023-03-14T03:17:42;10.90;99.90
33837;DHT22;20140;49.356;8.812;2023-03-14T03:20:08;10.80;99.90
33837;DHT22;20140;49.356;8.812;2023-03-14T03:22:37;10.90;99.90
33837;DHT22;20140;49.356;8.812;2023-03-14T03:25:04;10.80;99.90
33837;DHT22;20140;49.356;8.812;2023-03-14T03:27:31;10.70;99.90
33837;DHT22;20140;49.356;8.812;2023-03-14T03:29:57;10.70;99.90
33837;DHT22;20140;49.356;8.812;2023-03-14T03:32:23;10.70;99.90
33837;DHT22;20140;49.356;8.812;2023-03-14T03:34:49;10.70;99.90
33837;DHT22;20140;49.356;8.812;2023-03-14T03:37:14;10.60;99.90
33837;DHT22;20140;49.356;8.812;2023-03-14T03:39:40;10.60;99.90
33837;DHT22;20140;49.356;8.812;2023-03-14T03:42:05;10.70;99.90
33837;DHT22;20140;49.356;8.812;2023-03-14T03:44:31;10.70;99.90
33837;DHT22;20140;49.356;8.812;2023-03-14T03:46:56;10.60;99.90
33837;DHT22;20140;49.356;8.812;2023-03-14T03:49:22;10.70;99.90
33837;DHT22;20140;49.356;8.812;2023-03-14T03:51:47;10.70;99.90
33837;DHT22;20140;49.356;8.812;2023-03-14T03:54:13;10.70;99.90
33837;DHT22;20140;49.356;8.812;2023-03-14T03:56:38;10.60;99.90
33837;DHT22;20140;49.356;8.812;2023-03-14T03:59:04;10.50;99.90
33837;DHT22;20140;49.356;8.812;2023-03-14T04:01:29;10.60;99.90
33837;DHT22;20140;49.356;8.812;2023-03-14T04:03:55;10.60;99.90
33837;DHT22;20140;49.356;8.812;2023-03-14T04:06:20;10.50;99.90
33837;DHT22;20140;49.356;8.812;2023-03-14T04:08:46;10.50;99.90
33837;DHT22;20140;49.356;8.812;2023-03-14T04:11:12;10.60;99.90
33837;DHT22;20140;49.356;8.812;2023-03-14T04:13:37;10.60;99.90
33837;DHT22;20140;49.356;8.812;2023-03-14T04:16:03;10.60;99.90
33837;DHT22;20140;49.356;8.812;2023-03-14T04:18:28;10.70;99.90
33837;DHT22;20140;49.356;8.812;2023-03-14T04:20:56;10.70;99.90
33837;DHT22;20140;49.356;8.812;2023-03-14T04:23:24;10.70;99.90
33837;DHT22;20140;49.356;8.812;2023-03-14T04:25:52;10.80;99.90
33837;DHT22;20140;49.356;8.812;2023-03-14T04:28:18;10.70;99.90
33837;DHT22;20140;49.356;8.812;2023-03-14T04:30:44;10.80;99.90
33837;DHT22;20140;49.356;8.812;2023-03-14T04:33:10;10.80;99.90
33837;DHT22;20140;49.356;8.812;2023-03-14T04:35:36;10.80;99.90
33837;DHT22;20140;49.356;8.812;2023-03-14T04:38:01;10.70;99.90
33837;DHT22;20140;49.356;8.812;2023-03-14T04:40:28;10.80;99.90
33837;DHT22;20140;49.356;8.812;2023-03-14T04:42:53;10.80;99.90
33837;DHT22;20140;49.356;8.812;2023-03-14T04:45:19;10.80;99.90
33837;DHT22;20140;49.356;8.812;2023-03-14T04:47:44;10.90;99.90
33837;DHT22;20140;49.356;8.812;2023-03-14T04:50:10;10.90;99.90
33837;DHT22;20140;49.356;8.812;2023-03-14T04:52:35;10.90;99.90
33837;DHT22;20140;49.356;8.812;2023-03-14T04:55:01;10.80;99.90
33837;DHT22;20140;49.356;8.812;2023-03-14T04:57:27;10.80;99.90
33837;DHT22;20140;49.356;8.812;2023-03-14T04:59:52;10.70;99.90
33837;DHT22;20140;49.356;8.812;2023-03-14T05:02:18;10.70;99.90
33837;DHT22;20140;49.356;8.812;2023-03-14T05:04:43;10.70;99.90
33837;DHT22;20140;49.356;8.812;2023-03-14T05:07:09;10.80;99.90
33837;DHT22;20140;49.356;8.812;2023-03-14T05:09:34;10.80;99.90
33837;DHT22;20140;49.356;8.812;2023-03-14T05:12:00;10.80;99.90
33837;DHT22;20140;49.356;8.812;2023-03-14T05:14:25;10.80;99.90
33837;DHT22;20140;49.356;8.812;2023-03-14T05:16:51;10.90;99.90
33837;DHT22;20140;49.356;8.812;2023-03-14T05:19:16;10.80;99.90
33837;DHT22;20140;49.356;8.812;2023-03-14T05:21:42;10.80;99.90
33837;DHT22;20140;49.356;8.812;2023-03-14T05:24:07;10.80;99.90
33837;DHT22;20140;49.356;8.812;2023-03-14T05:26:33;10.90;99.90
33837;DHT22;20140;49.356;8.812;2023-03-14T05:28:58;10.90;99.90
33837;DHT22;20140;49.356;8.812;2023-03-14T05:31:24;10.80;99.90
33837;DHT22;20140;49.356;8.812;2023-03-14T05:33:49;10.80;99.90
33837;DHT22;20140;49.356;8.812;2023-03-14T05:36:15;10.80;99.90
33837;DHT22;20140;49.356;8.812;2023-03-14T05:38:40;10.80;99.90
33837;DHT22;20140;49.356;8.812;2023-03-14T05:41:06;10.80;99.90
33837;DHT22;20140;49.356;8.812;2023-03-14T05:43:31;10.80;99.90
33837;DHT22;20140;49.356;8.812;2023-03-14T05:45:57;10.80;99.90
33837;DHT22;20140;49.356;8.812;2023-03-14T05:48:22;10.70;99.90
33837;DHT22;20140;49.356;8.812;2023-03-14T05:50:53;10.70;99.90
33837;DHT22;20140;49.356;8.812;2023-03-14T05:53:19;10.70;99.90
33837;DHT22;20140;49.356;8.812;2023-03-14T05:55:44;10.60;99.90
33837;DHT22;20140;49.356;8.812;2023-03-14T05:58:10;10.70;99.90
33837;DHT22;20140;49.356;8.812;2023-03-14T06:00:35;10.70;99.90
33837;DHT22;20140;49.356;8.812;2023-03-14T06:03:01;10.80;99.90
33837;DHT22;20140;49.356;8.812;2023-03-14T06:05:26;10.80;99.90
33837;DHT22;20140;49.356;8.812;2023-03-14T06:07:52;10.80;99.90
33837;DHT22;20140;49.356;8.812;2023-03-14T06:10:17;10.70;99.90
33837;DHT22;20140;49.356;8.812;2023-03-14T06:12:43;10.70;99.90
33837;DHT22;20140;49.356;8.812;2023-03-14T06:15:09;10.80;99.90
33837;DHT22;20140;49.356;8.812;2023-03-14T06:17:34;10.70;99.90
33837;DHT22;20140;49.356;8.812;2023-03-14T06:20:00;10.80;99.90
33837;DHT22;20140;49.356;8.812;2023-03-14T06:22:25;10.70;99.90
33837;DHT22;20140;49.356;8.812;2023-03-14T06:24:51;10.70;99.90
33837;DHT22;20140;49.356;8.812;2023-03-14T06:27:16;10.80;99.90
33837;DHT22;20140;49.356;8.812;2023-03-14T06:29:42;10.90;99.90
33837;DHT22;20140;49.356;8.812;2023-03-14T06:32:07;10.90;99.90
33837;DHT22;20140;49.356;8.812;2023-03-14T06:34:33;10.90;99.90
33837;DHT22;20140;49.356;8.812;2023-03-14T06:36:58;10.90;99.90
33837;DHT22;20140;49.356;8.812;2023-03-14T06:39:24;11.00;99.90
33837;DHT22;20140;49.356;8.812;2023-03-14T06:41:50;11.00;99.90
33837;DHT22;20140;49.356;8.812;2023-03-14T06:44:15;10.90;99.90
33837;DHT22;20140;49.356;8.812;2023-03-14T06:46:40;11.00;99.90
33837;DHT22;20140;49.356;8.812;2023-03-14T06:49:06;11.00;99.90
33837;DHT22;20140;49.356;8.812;2023-03-14T06:51:31;11.10;99.90
33837;DHT22;20140;49.356;8.812;2023-03-14T06:53:57;11.00;99.90
33837;DHT22;20140;49.356;8.812;2023-03-14T06:56:22;11.10;99.90
33837;DHT22;20140;49.356;8.812;2023-03-14T06:58:48;11.10;99.90
33837;DHT22;20140;49.356;8.812;2023-03-14T07:01:21;11.10;99.90
33837;DHT22;20140;49.356;8.812;2023-03-14T07:03:48;11.10;99.90
33837;DHT22;20140;49.356;8.812;2023-03-14T07:06:13;11.10;99.90
33837;DHT22;20140;49.356;8.812;2023-03-14T07:08:38;11.10;99.90
33837;DHT22;20140;49.356;8.812;2023-03-14T07:11:04;11.10;99.90
33837;DHT22;20140;49.356;8.812;2023-03-14T07:13:30;11.10;99.90
33837;DHT22;20140;49.356;8.812;2023-03-14T07:15:55;11.10;99.90
33837;DHT22;20140;49.356;8.812;2023-03-14T07:18:21;11.10;99.90
33837;DHT22;20140;49.356;8.812;2023-03-14T07:20:47;11.10;99.90
33837;DHT22;20140;49.356;8.812;2023-03-14T07:23:13;11.10;99.90
33837;DHT22;20140;49.356;8.812;2023-03-14T07:25:38;11.10;99.90
33837;DHT22;20140;49.356;8.812;2023-03-14T07:28:04;11.10;99.90
33837;DHT22;20140;49.356;8.812;2023-03-14T07:30:30;11.10;99.90
33837;DHT22;20140;49.356;8.812;2023-03-14T07:32:55;11.10;99.90
33837;DHT22;20140;49.356;8.812;2023-03-14T07:35:20;11.10;99.90
33837;DHT22;20140;49.356;8.812;2023-03-14T07:37:46;11.10;99.90
33837;DHT22;20140;49.356;8.812;2023-03-14T07:40:12;11.10;99.90
33837;DHT22;20140;49.356;8.812;2023-03-14T07:42:41;11.10;99.90
33837;DHT22;20140;49.356;8.812;2023-03-14T07:45:07;11.10;99.90
33837;DHT22;20140;49.356;8.812;2023-03-14T07:47:32;11.10;99.90
33837;DHT22;20140;49.356;8.812;2023-03-14T07:49:58;11.20;99.90
33837;DHT22;20140;49.356;8.812;2023-03-14T07:52:24;11.10;99.90
33837;DHT22;20140;49.356;8.812;2023-03-14T07:54:49;11.20;99.90
33837;DHT22;20140;49.356;8.812;2023-03-14T07:57:15;11.20;99.90
33837;DHT22;20140;49.356;8.812;2023-03-14T07:59:41;11.20;99.90
33837;DHT22;20140;49.356;8.812;2023-03-14T08:02:11;11.20;99.90
33837;DHT22;20140;49.356;8.812;2023-03-14T08:04:37;11.20;99.90
33837;DHT22;20140;49.356;8.812;2023-03-14T08:07:03;11.20;99.90
33837;DHT22;20140;49.356;8.812;2023-03-14T08:09:28;11.20;99.90
33837;DHT22;20140;49.356;8.812;2023-03-14T08:11:54;11.30;99.90
33837;DHT22;20140;49.356;8.812;2023-03-14T08:14:20;11.30;99.90
33837;DHT22;20140;49.356;8.812;2023-03-14T08:16:45;11.30;99.90
33837;DHT22;20140;49.356;8.812;2023-03-14T08:19:11;11.30;99.90
33837;DHT22;20140;49.356;8.812;2023-03-14T08:21:36;11.30;99.90
33837;DHT22;20140;49.356;8.812;2023-03-14T08:24:02;11.30;99.90
33837;DHT22;20140;49.356;8.812;2023-03-14T08:26:27;11.30;99.90
33837;DHT22;20140;49.356;8.812;2023-03-14T08:28:53;11.30;99.90
33837;DHT22;20140;49.356;8.812;2023-03-14T08:31:18;11.40;99.90
33837;DHT22;20140;49.356;8.812;2023-03-14T08:33:44;11.50;99.90
33837;DHT22;20140;49.356;8.812;2023-03-14T08:36:10;11.50;99.90
33837;DHT22;20140;49.356;8.812;2023-03-14T08:38:36;11.50;99.90
33837;DHT22;20140;49.356;8.812;2023-03-14T08:41:02;11.50;99.90
33837;DHT22;20140;49.356;8.812;2023-03-14T08:43:29;11.50;99.90
33837;DHT22;20140;49.356;8.812;2023-03-14T08:45:57;11.60;99.90
33837;DHT22;20140;49.356;8.812;2023-03-14T08:48:23;11.60;99.90
33837;DHT22;20140;49.356;8.812;2023-03-14T08:50:48;11.60;99.90
33837;DHT22;20140;49.356;8.812;2023-03-14T08:53:14;11.70;99.90
33837;DHT22;20140;49.356;8.812;2023-03-14T08:55:39;11.60;99.90
33837;DHT22;20140;49.356;8.812;2023-03-14T08:58:05;11.70;99.90
33837;DHT22;20140;49.356;8.812;2023-03-14T09:00:30;11.70;99.90
33837;DHT22;20140;49.356;8.812;2023-03-14T09:02:56;11.70;99.90
33837;DHT22;20140;49.356;8.812;2023-03-14T09:05:21;11.70;99.90
33837;DHT22;20140;49.356;8.812;2023-03-14T09:07:47;11.70;99.90
33837;DHT22;20140;49.356;8.812;2023-03-14T09:10:12;11.80;99.90
33837;DHT22;20140;49.356;8.812;2023-03-14T09:12:38;11.80;99.90
33837;DHT22;20140;49.356;8.812;2023-03-14T09:15:04;11.90;99.90
33837;DHT22;20140;49.356;8.812;2023-03-14T09:17:30;11.90;99.90
33837;DHT22;20140;49.356;8.812;2023-03-14T09:19:55;11.90;99.90
33837;DHT22;20140;49.356;8.812;2023-03-14T09:22:21;11.80;99.90
33837;DHT22;20140;49.356;8.812;2023-03-14T09:24:47;11.70;99.90
33837;DHT22;20140;49.356;8.812;2023-03-14T09:27:12;11.70;99.90
33837;DHT22;20140;49.356;8.812;2023-03-14T09:29:38;11.90;99.90
33837;DHT22;20140;49.356;8.812;2023-03-14T09:32:03;11.90;99.90
33837;DHT22;20140;49.356;8.812;2023-03-14T09:34:29;11.60;99.90
33837;DHT22;20140;49.356;8.812;2023-03-14T09:36:55;11.30;99.90
33837;DHT22;20140;49.356;8.812;2023-03-14T09:39:20;11.30;99.90
33837;DHT22;20140;49.356;8.812;2023-03-14T09:41:51;11.30;99.90
33837;DHT22;20140;49.356;8.812;2023-03-14T09:44:29;11.30;99.90
33837;DHT22;20140;49.356;8.812;2023-03-14T09:46:58;11.30;99.90
33837;DHT22;20140;49.356;8.812;2023-03-14T09:49:31;11.50;99.90
33837;DHT22;20140;49.356;8.812;2023-03-14T09:51:59;11.50;99.90
33837;DHT22;20140;49.356;8.812;2023-03-14T09:54:48;11.50;99.90
33837;DHT22;20140;49.356;8.812;2023-03-14T09:57:17;11.60;99.90
33837;DHT22;20140;49.356;8.812;2023-03-14T09:59:45;11.70;99.90
33837;DHT22;20140;49.356;8.812;2023-03-14T10:02:21;11.70;99.90
33837;DHT22;20140;49.356;8.812;2023-03-14T10:04:49;11.60;99.90
33837;DHT22;20140;49.356;8.812;2023-03-14T10:07:17;11.70;99.90
33837;DHT22;20140;49.356;8.812;2023-03-14T10:09:46;11.70;99.90
33837;DHT22;20140;49.356;8.812;2023-03-14T10:12:12;11.70;99.90
33837;DHT22;20140;49.356;8.812;2023-03-14T10:14:47;11.70;99.90
33837;DHT22;20140;49.356;8.812;2023-03-14T10:17:13;11.70;99.90
33837;DHT22;20140;49.356;8.812;2023-03-14T10:19:54;11.70;99.90
33837;DHT22;20140;49.356;8.812;2023-03-14T10:22:22;11.70;99.90
33837;DHT22;20140;49.356;8.812;2023-03-14T10:24:56;11.60;99.90
33837;DHT22;20140;49.356;8.812;2023-03-14T10:27:31;11.60;99.90
33837;DHT22;20140;49.356;8.812;2023-03-14T10:30:02;11.60;99.90
33837;DHT22;20140;49.356;8.812;2023-03-14T10:32:37;11.50;99.90
33837;DHT22;20140;49.356;8.812;2023-03-14T10:37:52;11.20;99.90
33837;DHT22;20140;49.356;8.812;2023-03-14T10:40:24;11.20;99.90
33837;DHT22;20140;49.356;8.812;2023-03-14T10:42:50;11.10;99.90
33837;DHT22;20140;49.356;8.812;2023-03-14T10:45:28;11.10;99.90
33837;DHT22;20140;49.356;8.812;2023-03-14T10:47:59;11.10;99.90
33837;DHT22;20140;49.356;8.812;2023-03-14T10:50:30;11.00;99.90
33837;DHT22;20140;49.356;8.812;2023-03-14T10:52:57;10.90;99.90
33837;DHT22;20140;49.356;8.812;2023-03-14T10:55:24;10.80;99.90
33837;DHT22;20140;49.356;8.812;2023-03-14T10:57:51;10.80;99.90
33837;DHT22;20140;49.356;8.812;2023-03-14T11:00:22;10.80;99.90
33837;DHT22;20140;49.356;8.812;2023-03-14T11:03:10;10.80;99.90
33837;DHT22;20140;49.356;8.812;2023-03-14T11:05:49;10.80;99.90
33837;DHT22;20140;49.356;8.812;2023-03-14T11:08:25;10.90;99.90
33837;DHT22;20140;49.356;8.812;2023-03-14T11:11:02;10.90;99.90
33837;DHT22;20140;49.356;8.812;2023-03-14T11:13:52;10.90;99.90
33837;DHT22;20140;49.356;8.812;2023-03-14T11:16:27;10.80;99.90
33837;DHT22;20140;49.356;8.812;2023-03-14T11:19:00;10.80;99.90
33837;DHT22;20140;49.356;8.812;2023-03-14T11:26:55;10.50;99.90
33837;DHT22;20140;49.356;8.812;2023-03-14T11:29:38;10.50;99.90
33837;DHT22;20140;49.356;8.812;2023-03-14T11:32:12;10.40;99.90
33837;DHT22;20140;49.356;8.812;2023-03-14T11:34:50;10.40;99.90
33837;DHT22;20140;49.356;8.812;2023-03-14T11:37:35;10.30;99.90
33837;DHT22;20140;49.356;8.812;2023-03-14T11:40:20;10.20;99.90
33837;DHT22;20140;49.356;8.812;2023-03-14T11:43:18;10.10;99.90
33837;DHT22;20140;49.356;8.812;2023-03-14T11:45:47;10.10;99.90
33837;DHT22;20140;49.356;8.812;2023-03-14T11:48:27;10.10;99.90
33837;DHT22;20140;49.356;8.812;2023-03-14T11:50:57;10.10;99.90
33837;DHT22;20140;49.356;8.812;2023-03-14T11:53:40;10.10;99.90
33837;DHT22;20140;49.356;8.812;2023-03-14T11:56:17;10.10;99.90
33837;DHT22;20140;49.356;8.812;2023-03-14T11:58:55;10.20;99.90
33837;DHT22;20140;49.356;8.812;2023-03-14T12:01:27;10.20;99.90
33837;DHT22;20140;49.356;8.812;2023-03-14T12:04:03;10.30;99.90
33837;DHT22;20140;49.356;8.812;2023-03-14T12:06:47;10.20;99.90
33837;DHT22;20140;49.356;8.812;2023-03-14T12:09:15;10.20;99.90
33837;DHT22;20140;49.356;8.812;2023-03-14T12:11:43;10.10;99.90
33837;DHT22;20140;49.356;8.812;2023-03-14T12:14:29;10.10;99.90
33837;DHT22;20140;49.356;8.812;2023-03-14T12:16:58;10.00;99.90
33837;DHT22;20140;49.356;8.812;2023-03-14T12:21:53;10.00;99.90
33837;DHT22;20140;49.356;8.812;2023-03-14T12:24:23;10.00;99.90
33837;DHT22;20140;49.356;8.812;2023-03-14T12:26:54;9.90;99.90
33837;DHT22;20140;49.356;8.812;2023-03-14T12:29:20;9.90;99.90
33837;DHT22;20140;49.356;8.812;2023-03-14T12:31:47;9.90;99.90
33837;DHT22;20140;49.356;8.812;2023-03-14T12:44:51;9.40;99.90
33837;DHT22;20140;49.356;8.812;2023-03-14T12:49:47;9.10;99.90
33837;DHT22;20140;49.356;8.812;2023-03-14T12:52:21;9.00;99.90
33837;DHT22;20140;49.356;8.812;2023-03-14T12:55:03;8.90;99.90
33837;DHT22;20140;49.356;8.812;2023-03-14T12:57:39;8.80;99.90
33837;DHT22;20140;49.356;8.812;2023-03-14T13:00:19;8.70;99.90
33837;DHT22;20140;49.356;8.812;2023-03-14T13:02:46;8.50;99.90
33837;DHT22;20140;49.356;8.812;2023-03-14T13:05:20;8.40;99.90
33837;DHT22;20140;49.356;8.812;2023-03-14T13:10:22;8.30;99.90
33837;DHT22;20140;49.356;8.812;2023-03-14T13:12:52;8.40;99.90
33837;DHT22;20140;49.356;8.812;2023-03-14T13:15:35;8.50;99.90
33837;DHT22;20140;49.356;8.812;2023-03-14T13:18:13;8.60;99.90
33837;DHT22;20140;49.356;8.812;2023-03-14T13:20:51;8.80;99.90
33837;DHT22;20140;49.356;8.812;2023-03-14T13:25:46;9.20;99.90
33837;DHT22;20140;49.356;8.812;2023-03-14T13:28:13;9.70;99.90
33837;DHT22;20140;49.356;8.812;2023-03-14T13:30:41;9.90;99.90
33837;DHT22;20140;49.356;8.812;2023-03-14T13:33:12;10.80;99.90
33837;DHT22;20140;49.356;8.812;2023-03-14T13:36:03;10.70;99.90
33837;DHT22;20140;49.356;8.812;2023-03-14T13:38:29;10.20;99.90
33837;DHT22;20140;49.356;8.812;2023-03-14T13:40:56;10.10;99.90
33837;DHT22;20140;49.356;8.812;2023-03-14T13:43:27;10.00;99.90
33837;DHT22;20140;49.356;8.812;2023-03-14T13:45:54;9.80;99.90
33837;DHT22;20140;49.356;8.812;2023-03-14T13:48:20;9.70;99.90
33837;DHT22;20140;49.356;8.812;2023-03-14T13:50:49;9.70;99.90
33837;DHT22;20140;49.356;8.812;2023-03-14T13:53:15;9.70;99.90
33837;DHT22;20140;49.356;8.812;2023-03-14T13:55:41;9.70;99.90
33837;DHT22;20140;49.356;8.812;2023-03-14T13:58:10;9.80;99.90
33837;DHT22;20140;49.356;8.812;2023-03-14T14:00:37;9.60;99.90
33837;DHT22;20140;49.356;8.812;2023-03-14T14:03:02;9.60;99.90
33837;DHT22;20140;49.356;8.812;2023-03-14T14:05:28;9.50;99.90
33837;DHT22;20140;49.356;8.812;2023-03-14T14:07:54;9.50;99.90
33837;DHT22;20140;49.356;8.812;2023-03-14T14:10:20;9.50;99.90
33837;DHT22;20140;49.356;8.812;2023-03-14T14:12:53;9.40;99.90
33837;DHT22;20140;49.356;8.812;2023-03-14T14:15:28;9.40;99.90
33837;DHT22;20140;49.356;8.812;2023-03-14T14:17:56;9.50;99.90
33837;DHT22;20140;49.356;8.812;2023-03-14T14:20:29;9.50;99.90
33837;DHT22;20140;49.356;8.812;2023-03-14T14:23:00;9.60;99.90
33837;DHT22;20140;49.356;8.812;2023-03-14T14:25:26;9.60;99.90
33837;DHT22;20140;49.356;8.812;2023-03-14T14:27:53;9.60;99.90
33837;DHT22;20140;49.356;8.812;2023-03-14T14:32:46;9.50;99.90
33837;DHT22;20140;49.356;8.812;2023-03-14T14:35:31;9.50;99.90
33837;DHT22;20140;49.356;8.812;2023-03-14T14:37:57;9.60;99.90
33837;DHT22;20140;49.356;8.812;2023-03-14T14:40:26;9.60;99.90
33837;DHT22;20140;49.356;8.812;2023-03-14T14:42:52;9.70;99.90
33837;DHT22;20140;49.356;8.812;2023-03-14T14:45:24;9.70;99.90
33837;DHT22;20140;49.356;8.812;2023-03-14T14:47:53;9.70;99.90
33837;DHT22;20140;49.356;8.812;2023-03-14T14:50:48;9.80;99.90
33837;DHT22;20140;49.356;8.812;2023-03-14T14:55:42;9.70;99.90
33837;DHT22;20140;49.356;8.812;2023-03-14T14:58:12;9.70;99.90
33837;DHT22;20140;49.356;8.812;2023-03-14T15:00:39;9.70;99.90
33837;DHT22;20140;49.356;8.812;2023-03-14T15:03:10;9.70;99.90
33837;DHT22;20140;49.356;8.812;2023-03-14T15:05:37;9.80;99.90
33837;DHT22;20140;49.356;8.812;2023-03-14T15:08:07;9.90;99.90
33837;DHT22;20140;49.356;8.812;2023-03-14T15:10:33;10.00;99.90
33837;DHT22;20140;49.356;8.812;2023-03-14T15:12:59;10.50;99.90
33837;DHT22;20140;49.356;8.812;2023-03-14T15:15:25;10.60;99.90
33837;DHT22;20140;49.356;8.812;2023-03-14T15:17:50;10.60;99.90
33837;DHT22;20140;49.356;8.812;2023-03-14T15:20:16;10.50;99.90
33837;DHT22;20140;49.356;8.812;2023-03-14T15:22:43;10.10;99.90
33837;DHT22;20140;49.356;8.812;2023-03-14T15:25:08;9.90;99.90
33837;DHT22;20140;49.356;8.812;2023-03-14T15:27:35;9.90;99.90
33837;DHT22;20140;49.356;8.812;2023-03-14T15:30:00;10.00;99.90
33837;DHT22;20140;49.356;8.812;2023-03-14T15:32:26;10.30;99.90
33837;DHT22;20140;49.356;8.812;2023-03-14T15:34:55;10.50;99.50
33837;DHT22;20140;49.356;8.812;2023-03-14T15:37:21;10.60;98.90
33837;DHT22;20140;49.356;8.812;2023-03-14T15:39:47;10.90;98.90
33837;DHT22;20140;49.356;8.812;2023-03-14T15:42:12;11.40;98.50
33837;DHT22;20140;49.356;8.812;2023-03-14T15:44:38;11.20;97.60
33837;DHT22;20140;49.356;8.812;2023-03-14T15:47:04;11.00;97.80
33837;DHT22;20140;49.356;8.812;2023-03-14T15:49:30;11.50;96.90
33837;DHT22;20140;49.356;8.812;2023-03-14T15:51:55;11.20;97.20
33837;DHT22;20140;49.356;8.812;2023-03-14T15:54:20;11.20;97.70
33837;DHT22;20140;49.356;8.812;2023-03-14T15:56:46;10.70;98.80
33837;DHT22;20140;49.356;8.812;2023-03-14T15:59:12;11.10;97.50
33837;DHT22;20140;49.356;8.812;2023-03-14T16:01:37;11.50;98.00
33837;DHT22;20140;49.356;8.812;2023-03-14T16:04:02;11.80;96.40
33837;DHT22;20140;49.356;8.812;2023-03-14T16:06:28;11.50;97.30
33837;DHT22;20140;49.356;8.812;2023-03-14T16:08:53;11.20;97.20
33837;DHT22;20140;49.356;8.812;2023-03-14T16:11:19;11.70;96.60
33837;DHT22;20140;49.356;8.812;2023-03-14T16:13:45;11.30;96.20
33837;DHT22;20140;49.356;8.812;2023-03-14T16:16:11;11.50;96.40
33837;DHT22;20140;49.356;8.812;2023-03-14T16:18:37;11.20;96.20